Time;durP1;ratioP1;P1;durP2;ratioP2;P2;SDS_P1;SDS_P2;PMS_P1;PMS_P2;Temp;Humidity;BMP_temperature;BMP_pressure;BME280_temperature;BME280_humidity;BME280_pressure;Samples;Min_cycle;Max_cycle;Signal;HPM_P1;HPM_P2
2023/05/10 00:01:07;;;;;;;0.82;0.57;;;15.00;99.90;;;;;;5009448;28;20019;-74
2023/05/10 00:03:34;;;;;;;1.55;0.52;;;15.00;99.90;;;;;;4981422;28;20027;-74
2023/05/10 00:06:00;;;;;;;0.35;0.28;;;15.00;99.90;;;;;;4973264;28;20035;-74
2023/05/10 00:08:32;;;;;;;1.75;0.60;;;15.00;99.90;;;;;;4973480;28;20477;-74
2023/05/10 00:11:04;;;;;;;0.95;0.40;;;15.00;99.90;;;;;;4973483;28;20042;-76
2023/05/10 00:13:30;;;;;;;1.55;0.30;;;15.00;99.90;;;;;;5004796;28;20035;-76
2023/05/10 00:15:55;;;;;;;0.90;0.38;;;14.90;99.90;;;;;;4973510;28;20529;-76
2023/05/10 00:18:24;;;;;;;0.70;0.50;;;14.90;99.90;;;;;;4971547;28;20529;-76
2023/05/10 00:20:55;;;;;;;0.68;0.40;;;14.90;99.90;;;;;;4953879;29;20035;-76
2023/05/10 00:23:21;;;;;;;2.33;0.50;;;14.80;99.90;;;;;;4970949;28;20077;-76
2023/05/10 00:25:52;;;;;;;0.35;0.35;;;14.80;99.90;;;;;;4973516;28;20470;-74
2023/05/10 00:28:18;;;;;;;0.30;0.30;;;14.70;99.90;;;;;;4964855;28;20379;-74
2023/05/10 00:30:43;;;;;;;0.75;0.30;;;14.70;99.90;;;;;;4964759;28;20038;-75
2023/05/10 00:33:12;;;;;;;2.70;0.40;;;14.70;99.90;;;;;;4972836;28;20035;-74
2023/05/10 00:35:38;;;;;;;0.40;0.30;;;14.70;99.90;;;;;;4968576;28;20030;-76
2023/05/10 00:38:03;;;;;;;1.95;0.30;;;14.70;99.90;;;;;;4959789;28;20031;-75
2023/05/10 00:40:32;;;;;;;0.65;0.50;;;14.80;99.90;;;;;;4966626;28;20031;-75
2023/05/10 00:42:59;;;;;;;0.95;0.38;;;14.80;99.90;;;;;;4965698;28;20031;-75
2023/05/10 00:45:27;;;;;;;0.82;0.50;;;14.80;99.90;;;;;;4971965;28;20113;-75
2023/05/10 00:47:54;;;;;;;0.32;0.22;;;14.80;99.90;;;;;;4972389;28;20102;-75
2023/05/10 00:50:27;;;;;;;0.50;0.30;;;14.70;99.90;;;;;;4972105;28;20019;-75
2023/05/10 00:52:56;;;;;;;1.30;0.40;;;14.70;99.90;;;;;;4976516;28;20039;-75
2023/05/10 00:55:22;;;;;;;0.77;0.57;;;14.70;99.90;;;;;;4972349;28;20023;-75
2023/05/10 00:57:48;;;;;;;0.30;0.20;;;14.60;99.90;;;;;;4966282;28;20023;-75
2023/05/10 01:00:20;;;;;;;1.67;0.20;;;14.60;99.90;;;;;;4969922;28;20050;-74
2023/05/10 01:02:46;;;;;;;1.10;0.40;;;14.60;99.90;;;;;;4971575;28;20037;-74
2023/05/10 01:05:21;;;;;;;2.72;0.32;;;14.50;99.90;;;;;;4971580;28;20058;-75
2023/05/10 01:07:49;;;;;;;0.50;0.32;;;14.40;99.90;;;;;;4972654;28;20147;-75
2023/05/10 01:10:18;;;;;;;0.50;0.50;;;14.40;99.90;;;;;;4964990;28;20027;-75
2023/05/10 01:12:53;;;;;;;1.95;0.35;;;14.40;99.90;;;;;;4976634;28;20066;-75
2023/05/10 01:15:22;;;;;;;0.15;0.13;;;14.40;99.90;;;;;;4976710;28;20359;-75
2023/05/10 01:17:48;;;;;;;2.38;0.20;;;14.40;99.90;;;;;;4976707;28;20381;-74
2023/05/10 01:20:32;;;;;;;1.52;0.13;;;14.30;99.90;;;;;;4976481;28;20023;-74
2023/05/10 01:23:35;;;;;;;0.57;0.20;;;14.40;99.90;;;;;;4976622;28;20070;-76
2023/05/10 01:26:38;;;;;;;0.57;0.40;;;14.30;99.90;;;;;;4976424;28;20033;-74
2023/05/10 01:29:41;;;;;;;1.27;0.30;;;14.40;99.90;;;;;;4976248;28;20031;-75
2023/05/10 01:32:31;;;;;;;1.48;0.20;;;14.40;99.90;;;;;;5003490;23;20039;-85
2023/05/10 01:35:18;;;;;;;0.85;0.40;;;14.40;99.90;;;;;;4972855;28;20115;-83
2023/05/10 01:38:01;;;;;;;0.20;0.20;;;14.40;99.90;;;;;;4962347;28;20031;-86
2023/05/10 01:40:37;;;;;;;1.40;0.20;;;14.40;99.90;;;;;;4953411;28;20694;-85
2023/05/10 01:43:08;;;;;;;1.73;0.30;;;14.40;99.90;;;;;;4973775;28;20166;-84
2023/05/10 01:46:10;;;;;;;0.38;0.32;;;14.40;99.90;;;;;;4967883;23;20047;-76
2023/05/10 01:48:53;;;;;;;0.35;0.32;;;14.40;99.90;;;;;;4966354;28;20038;-77
2023/05/10 01:51:24;;;;;;;1.70;0.20;;;14.40;99.90;;;;;;4960270;28;20027;-76
2023/05/10 01:54:02;;;;;;;0.30;0.30;;;14.30;99.90;;;;;;4952646;28;20542;-76
2023/05/10 01:56:30;;;;;;;0.77;0.20;;;14.40;99.90;;;;;;4954226;28;20705;-78
2023/05/10 01:58:57;;;;;;;0.85;0.45;;;14.40;99.90;;;;;;4966487;23;20035;-73
2023/05/10 02:01:25;;;;;;;0.40;0.40;;;14.40;99.90;;;;;;4973253;28;20053;-74
2023/05/10 02:03:52;;;;;;;0.30;0.20;;;14.40;99.90;;;;;;4973888;28;20030;-75
2023/05/10 02:06:26;;;;;;;0.40;0.20;;;14.40;99.90;;;;;;4972988;28;20019;-74
2023/05/10 02:09:01;;;;;;;0.50;0.32;;;14.40;99.90;;;;;;4988840;28;20031;-74
2023/05/10 02:11:28;;;;;;;1.27;0.30;;;14.40;99.90;;;;;;4972896;28;20042;-75
2023/05/10 02:13:58;;;;;;;0.40;0.20;;;14.30;99.90;;;;;;4966413;28;20049;-76
2023/05/10 02:16:26;;;;;;;2.13;0.30;;;14.30;99.90;;;;;;4969720;28;20030;-76
2023/05/10 02:18:53;;;;;;;0.45;0.20;;;14.40;99.90;;;;;;4971538;28;20593;-77
2023/05/10 02:21:21;;;;;;;0.50;0.30;;;14.30;99.90;;;;;;4966318;28;20023;-73
2023/05/10 02:23:50;;;;;;;0.68;0.30;;;14.30;99.90;;;;;;4970487;28;20057;-75
2023/05/10 02:26:22;;;;;;;0.60;0.32;;;14.30;99.90;;;;;;4970219;28;20049;-75
2023/05/10 02:28:49;;;;;;;0.28;0.20;;;14.30;99.90;;;;;;4969314;28;20374;-75
2023/05/10 02:31:21;;;;;;;1.23;0.30;;;14.30;99.90;;;;;;4969846;28;20114;-75
2023/05/10 02:33:48;;;;;;;1.38;0.30;;;14.30;99.90;;;;;;4970080;28;20028;-73
2023/05/10 02:36:16;;;;;;;0.50;0.30;;;14.20;99.90;;;;;;4973616;28;20019;-74
2023/05/10 02:38:43;;;;;;;0.60;0.20;;;14.20;99.90;;;;;;4973615;28;20532;-74
2023/05/10 02:41:10;;;;;;;2.05;0.50;;;14.20;99.90;;;;;;4968602;28;20023;-74
2023/05/10 02:43:39;;;;;;;0.50;0.40;;;14.10;99.90;;;;;;4965259;28;20035;-73
2023/05/10 02:46:05;;;;;;;0.40;0.20;;;14.10;99.90;;;;;;4964408;28;20042;-74
2023/05/10 02:48:30;;;;;;;0.30;0.22;;;14.10;99.90;;;;;;4960216;28;20031;-73
2023/05/10 02:51:04;;;;;;;0.52;0.28;;;14.10;99.90;;;;;;4970501;28;20027;-73
2023/05/10 02:53:35;;;;;;;0.40;0.30;;;14.10;99.90;;;;;;4970570;28;20172;-73
2023/05/10 02:56:13;;;;;;;1.08;0.38;;;14.10;99.90;;;;;;4976794;28;20023;-74
2023/05/10 02:58:52;;;;;;;0.95;0.40;;;14.10;99.90;;;;;;4976635;28;20402;-73
2023/05/10 03:01:21;;;;;;;0.75;0.40;;;14.10;99.90;;;;;;4972377;28;20999;-74
2023/05/10 03:03:46;;;;;;;2.10;0.45;;;14.00;99.90;;;;;;4970178;28;20103;-72
2023/05/10 03:06:12;;;;;;;1.13;0.50;;;14.00;99.90;;;;;;4967931;28;20164;-75
2023/05/10 03:08:38;;;;;;;5.40;0.77;;;14.00;99.90;;;;;;4969323;28;20386;-75
2023/05/10 03:11:41;;;;;;;1.75;0.30;;;14.00;99.90;;;;;;4970258;28;20026;-73
2023/05/10 03:14:31;;;;;;;3.42;0.60;;;14.00;99.90;;;;;;4970545;28;20027;-73
2023/05/10 03:17:04;;;;;;;1.88;0.40;;;14.00;99.90;;;;;;4968676;28;20111;-74
2023/05/10 03:19:53;;;;;;;1.00;0.40;;;13.90;99.90;;;;;;4969134;28;20034;-74
2023/05/10 03:22:45;;;;;;;1.08;0.47;;;13.90;99.90;;;;;;4968710;28;20034;-74
2023/05/10 03:25:12;;;;;;;1.90;0.40;;;13.90;99.90;;;;;;4971538;28;20039;-73
2023/05/10 03:27:41;;;;;;;3.92;0.40;;;14.00;99.90;;;;;;4970260;28;20426;-73
2023/05/10 03:30:16;;;;;;;0.43;0.43;;;13.90;99.90;;;;;;4966151;28;20037;-74
2023/05/10 03:32:45;;;;;;;2.35;0.73;;;13.90;99.90;;;;;;4967901;28;20050;-74
2023/05/10 03:35:14;;;;;;;3.70;1.02;;;13.90;99.90;;;;;;4970464;28;20038;-74
2023/05/10 03:37:40;;;;;;;2.72;0.60;;;13.90;99.90;;;;;;4969525;28;20036;-74
2023/05/10 03:40:06;;;;;;;1.65;0.45;;;13.90;99.90;;;;;;4969021;28;20022;-73
2023/05/10 03:42:32;;;;;;;0.30;0.30;;;13.90;99.90;;;;;;4965645;28;20031;-74
2023/05/10 03:45:04;;;;;;;0.80;0.63;;;13.90;99.90;;;;;;4973672;28;20039;-73
2023/05/10 03:47:30;;;;;;;0.70;0.40;;;13.90;99.90;;;;;;4969488;28;20035;-74
2023/05/10 03:49:55;;;;;;;1.00;0.43;;;13.90;99.90;;;;;;4965869;28;20042;-74
2023/05/10 03:52:21;;;;;;;0.68;0.40;;;13.90;99.90;;;;;;4962162;28;20110;-73
2023/05/10 03:54:46;;;;;;;2.05;0.50;;;13.90;99.90;;;;;;4965417;28;20034;-73
2023/05/10 03:57:12;;;;;;;1.25;0.50;;;13.90;99.90;;;;;;4960402;28;20373;-74
2023/05/10 03:59:38;;;;;;;0.50;0.43;;;13.90;99.90;;;;;;4967810;28;20108;-74
2023/05/10 04:02:03;;;;;;;5.40;0.60;;;13.90;99.90;;;;;;4961580;28;20035;-72
2023/05/10 04:04:35;;;;;;;1.20;0.45;;;13.90;99.90;;;;;;4967487;28;20702;-73
2023/05/10 04:07:00;;;;;;;0.55;0.50;;;13.90;99.90;;;;;;4970277;28;20042;-73
2023/05/10 04:09:26;;;;;;;2.42;0.50;;;14.00;99.90;;;;;;4971181;28;20042;-74
2023/05/10 04:11:54;;;;;;;0.60;0.45;;;13.90;99.90;;;;;;4964987;28;20057;-73
2023/05/10 04:14:20;;;;;;;0.73;0.40;;;14.00;99.90;;;;;;4960506;28;20039;-71
2023/05/10 04:16:46;;;;;;;2.30;0.45;;;14.00;99.90;;;;;;4966060;28;20038;-73
2023/05/10 04:19:11;;;;;;;2.05;0.55;;;14.00;99.90;;;;;;4965820;28;20054;-72
2023/05/10 04:21:37;;;;;;;3.65;0.77;;;14.00;99.90;;;;;;4964990;28;20051;-72
2023/05/10 04:24:03;;;;;;;2.17;0.52;;;14.00;99.90;;;;;;4969728;28;20026;-72
2023/05/10 04:26:28;;;;;;;2.60;0.60;;;13.90;99.90;;;;;;4972594;28;20117;-73
2023/05/10 04:28:54;;;;;;;2.92;0.85;;;14.00;99.90;;;;;;4965106;28;20086;-71
2023/05/10 04:31:19;;;;;;;1.95;0.50;;;13.90;99.90;;;;;;4966921;28;20062;-72
2023/05/10 04:33:45;;;;;;;1.55;0.70;;;13.90;99.90;;;;;;4965536;28;20526;-74
2023/05/10 04:36:23;;;;;;;2.95;0.70;;;13.90;99.90;;;;;;4968818;28;20026;-72
2023/05/10 04:38:49;;;;;;;3.05;0.95;;;14.00;99.90;;;;;;4963409;28;20027;-73
2023/05/10 04:41:14;;;;;;;1.25;0.90;;;13.90;99.90;;;;;;4972807;28;20042;-73
2023/05/10 04:43:40;;;;;;;0.98;0.88;;;13.90;99.90;;;;;;4967947;28;20438;-74
2023/05/10 04:46:07;;;;;;;0.93;0.50;;;13.90;99.90;;;;;;4974259;28;20030;-74
2023/05/10 04:48:32;;;;;;;1.88;0.40;;;13.90;99.90;;;;;;4966695;28;20041;-72
2023/05/10 04:50:58;;;;;;;0.40;0.40;;;13.90;99.90;;;;;;4970040;28;20513;-73
2023/05/10 04:53:24;;;;;;;2.78;0.70;;;13.90;99.90;;;;;;4967670;28;20429;-73
2023/05/10 04:55:49;;;;;;;1.20;1.10;;;13.90;99.90;;;;;;4975637;28;20027;-73
2023/05/10 04:58:15;;;;;;;1.90;0.60;;;13.90;99.90;;;;;;4968601;28;20034;-74
2023/05/10 05:00:42;;;;;;;1.95;0.75;;;13.90;99.90;;;;;;4972302;28;20077;-76
2023/05/10 05:03:07;;;;;;;1.40;0.50;;;13.90;99.90;;;;;;4973253;28;20042;-76
2023/05/10 05:05:33;;;;;;;2.38;0.60;;;13.90;99.90;;;;;;4974154;28;20208;-76
2023/05/10 05:07:59;;;;;;;1.98;0.60;;;14.00;99.90;;;;;;4972041;28;20027;-74
2023/05/10 05:10:24;;;;;;;4.65;0.82;;;14.00;99.90;;;;;;4972997;28;20031;-77
2023/05/10 05:12:50;;;;;;;2.83;0.70;;;14.00;99.90;;;;;;4969712;28;20038;-76
2023/05/10 05:15:16;;;;;;;2.95;0.73;;;14.00;99.90;;;;;;4972316;28;20030;-75
2023/05/10 05:17:43;;;;;;;3.05;0.80;;;14.00;99.90;;;;;;4970674;28;20425;-75
2023/05/10 05:20:12;;;;;;;1.85;0.63;;;14.00;99.90;;;;;;4968933;28;20027;-77
2023/05/10 05:22:38;;;;;;;2.72;0.70;;;14.00;99.90;;;;;;4985430;28;20048;-75
2023/05/10 05:25:04;;;;;;;1.73;0.90;;;14.00;99.90;;;;;;4971343;28;20027;-75
2023/05/10 05:27:31;;;;;;;3.78;1.40;;;14.00;99.90;;;;;;4969626;28;20098;-76
2023/05/10 05:29:57;;;;;;;1.77;0.60;;;14.00;99.90;;;;;;4989495;28;20122;-76
2023/05/10 05:32:24;;;;;;;0.95;0.60;;;14.10;99.90;;;;;;4971130;28;20035;-76
2023/05/10 05:34:51;;;;;;;0.98;0.70;;;14.10;99.90;;;;;;4976358;28;20034;-76
2023/05/10 05:37:18;;;;;;;0.65;0.50;;;14.10;99.90;;;;;;4971893;28;20035;-72
2023/05/10 05:39:44;;;;;;;13.88;1.20;;;14.10;99.90;;;;;;4969234;28;20030;-71
2023/05/10 05:42:13;;;;;;;2.28;1.13;;;14.20;99.90;;;;;;4972218;28;20049;-72
2023/05/10 05:44:39;;;;;;;1.65;0.95;;;14.20;99.90;;;;;;4972225;28;20101;-72
2023/05/10 05:47:06;;;;;;;3.20;0.90;;;14.20;99.90;;;;;;4966838;28;20030;-78
2023/05/10 05:49:32;;;;;;;2.72;0.90;;;14.30;99.90;;;;;;4978259;28;20031;-78
2023/05/10 05:52:03;;;;;;;3.72;1.13;;;14.30;99.90;;;;;;4975554;28;20022;-77
2023/05/10 05:54:30;;;;;;;2.90;0.88;;;14.30;99.90;;;;;;4995939;28;20026;-76
2023/05/10 05:56:59;;;;;;;2.08;0.65;;;14.20;99.90;;;;;;4967855;28;20118;-74
2023/05/10 05:59:25;;;;;;;2.13;1.10;;;14.20;99.90;;;;;;4968971;28;20038;-75
2023/05/10 06:01:51;;;;;;;4.93;1.10;;;14.20;99.90;;;;;;4968649;28;20027;-76
2023/05/10 06:04:17;;;;;;;2.42;0.85;;;14.20;99.90;;;;;;4972672;28;20176;-76
2023/05/10 06:06:43;;;;;;;2.72;1.00;;;14.10;99.90;;;;;;4974086;28;20043;-76
2023/05/10 06:09:09;;;;;;;1.30;0.70;;;14.20;99.90;;;;;;4973276;28;20027;-76
2023/05/10 06:11:35;;;;;;;1.38;0.70;;;14.10;99.90;;;;;;4968529;28;20395;-75
2023/05/10 06:14:01;;;;;;;1.83;0.75;;;14.10;99.90;;;;;;4972148;28;20536;-73
2023/05/10 06:16:31;;;;;;;6.05;1.40;;;14.10;99.90;;;;;;4974816;28;20035;-76
2023/05/10 06:18:56;;;;;;;5.95;1.30;;;14.20;99.90;;;;;;4968324;28;20069;-76
2023/05/10 06:21:22;;;;;;;3.92;1.00;;;14.20;99.90;;;;;;4990470;28;20057;-75
2023/05/10 06:23:48;;;;;;;2.97;1.05;;;14.20;99.90;;;;;;4971777;28;20050;-75
2023/05/10 06:26:13;;;;;;;1.48;1.00;;;14.20;99.90;;;;;;4972334;28;20042;-75
2023/05/10 06:28:39;;;;;;;2.67;0.82;;;14.20;99.90;;;;;;4976122;28;20035;-75
2023/05/10 06:31:06;;;;;;;6.38;0.77;;;14.20;99.90;;;;;;4969003;28;20556;-72
2023/05/10 06:33:32;;;;;;;2.17;0.90;;;14.20;99.90;;;;;;4973923;28;20035;-76
2023/05/10 06:35:58;;;;;;;2.58;0.93;;;14.20;99.90;;;;;;4973291;28;20020;-76
2023/05/10 06:38:23;;;;;;;3.45;0.90;;;14.20;99.90;;;;;;4972290;28;20125;-75
2023/05/10 06:40:49;;;;;;;2.08;0.80;;;14.20;99.90;;;;;;4973246;28;21678;-76
2023/05/10 06:43:15;;;;;;;3.20;0.70;;;14.20;99.90;;;;;;4969873;28;20027;-75
2023/05/10 06:45:40;;;;;;;3.55;1.02;;;14.30;99.90;;;;;;4968337;28;20043;-79
2023/05/10 06:48:07;;;;;;;1.98;0.93;;;14.30;99.90;;;;;;4976244;28;20489;-77
2023/05/10 06:50:33;;;;;;;2.20;0.60;;;14.30;99.90;;;;;;4991383;28;20035;-76
2023/05/10 06:52:59;;;;;;;1.52;0.70;;;14.40;99.90;;;;;;4973464;28;20162;-77
2023/05/10 06:55:24;;;;;;;3.13;0.77;;;14.40;99.90;;;;;;4974789;28;20109;-75
2023/05/10 06:57:50;;;;;;;3.40;0.60;;;14.50;99.90;;;;;;4974766;28;20370;-75
2023/05/10 07:00:17;;;;;;;4.57;0.90;;;14.50;99.90;;;;;;4959709;28;20015;-76
2023/05/10 07:02:43;;;;;;;4.47;1.08;;;14.60;99.90;;;;;;4968426;28;20042;-75
2023/05/10 07:05:09;;;;;;;4.55;0.65;;;14.60;99.90;;;;;;4969422;28;20031;-77
2023/05/10 07:07:34;;;;;;;2.85;0.73;;;14.60;99.90;;;;;;4970062;28;20053;-76
2023/05/10 07:10:00;;;;;;;2.67;1.00;;;14.60;99.90;;;;;;4965287;28;20039;-74
2023/05/10 07:12:26;;;;;;;1.60;0.90;;;14.70;99.90;;;;;;4968503;28;20046;-75
2023/05/10 07:14:52;;;;;;;2.65;1.10;;;14.70;99.90;;;;;;4972198;28;20557;-74
2023/05/10 07:17:20;;;;;;;3.05;0.70;;;14.80;99.90;;;;;;4968901;28;20027;-76
2023/05/10 07:19:46;;;;;;;3.60;0.98;;;14.80;99.90;;;;;;4971889;28;20037;-75
2023/05/10 07:22:12;;;;;;;2.22;0.70;;;14.80;99.90;;;;;;4971530;28;20031;-74
2023/05/10 07:24:38;;;;;;;1.23;0.60;;;14.80;99.90;;;;;;4968526;28;20081;-75
2023/05/10 07:27:04;;;;;;;3.13;1.17;;;14.80;99.90;;;;;;4971916;28;20525;-75
2023/05/10 07:29:37;;;;;;;2.78;0.70;;;14.80;99.90;;;;;;4969507;28;20111;-75
2023/05/10 07:32:03;;;;;;;2.27;0.50;;;14.80;99.90;;;;;;4965773;28;21839;-75
2023/05/10 07:34:29;;;;;;;1.52;0.80;;;14.80;99.90;;;;;;4972067;28;20045;-74
2023/05/10 07:36:59;;;;;;;0.55;0.50;;;14.80;99.90;;;;;;4976195;28;20110;-77
2023/05/10 07:39:25;;;;;;;0.82;0.50;;;14.80;99.90;;;;;;4968978;28;20092;-77
2023/05/10 07:41:51;;;;;;;2.38;0.60;;;14.80;99.90;;;;;;4986625;28;20031;-74
2023/05/10 07:44:20;;;;;;;3.17;0.77;;;14.80;99.90;;;;;;4967229;28;20023;-74
2023/05/10 07:46:46;;;;;;;1.55;0.82;;;14.80;99.90;;;;;;4973973;28;20081;-74
2023/05/10 07:49:11;;;;;;;0.93;0.80;;;14.80;99.90;;;;;;4974590;28;20030;-75
2023/05/10 07:51:37;;;;;;;3.67;0.85;;;14.80;99.90;;;;;;4972826;28;20398;-74
2023/05/10 07:54:02;;;;;;;2.88;0.82;;;14.80;99.90;;;;;;4967436;28;20037;-76
2023/05/10 07:56:30;;;;;;;2.60;0.75;;;14.80;99.90;;;;;;4975437;28;20023;-77
2023/05/10 07:58:56;;;;;;;1.58;0.70;;;14.80;99.90;;;;;;4970080;28;20097;-75
2023/05/10 08:01:23;;;;;;;1.75;0.60;;;14.80;99.90;;;;;;4976671;23;20051;-86
2023/05/10 08:03:50;;;;;;;3.58;0.60;;;14.90;99.90;;;;;;4953585;28;20042;-85
2023/05/10 08:06:17;;;;;;;4.28;1.35;;;14.80;99.90;;;;;;4957094;28;20039;-86
2023/05/10 08:08:45;;;;;;;2.15;0.55;;;14.90;99.90;;;;;;4991971;28;20084;-85
2023/05/10 08:11:11;;;;;;;1.92;0.73;;;14.90;99.90;;;;;;4965912;28;20035;-86
2023/05/10 08:13:37;;;;;;;0.60;0.40;;;14.90;99.90;;;;;;4958517;28;20026;-85
2023/05/10 08:16:02;;;;;;;1.23;0.55;;;14.90;99.90;;;;;;4941740;28;20023;-85
2023/05/10 08:18:28;;;;;;;1.50;0.60;;;15.00;99.90;;;;;;4984556;28;20031;-85
2023/05/10 08:20:54;;;;;;;1.65;0.80;;;15.00;99.90;;;;;;4993559;28;20102;-85
2023/05/10 08:23:19;;;;;;;1.50;0.80;;;15.10;99.90;;;;;;4979477;28;20010;-84
2023/05/10 08:25:46;;;;;;;2.05;0.60;;;15.10;99.90;;;;;;4999119;28;20031;-84
2023/05/10 08:28:12;;;;;;;1.70;0.75;;;15.10;99.90;;;;;;4997971;28;20079;-84
2023/05/10 08:30:37;;;;;;;0.85;0.50;;;15.20;99.90;;;;;;4977048;28;20043;-85
2023/05/10 08:33:03;;;;;;;1.00;0.65;;;15.20;99.90;;;;;;4966319;28;20027;-84
2023/05/10 08:35:29;;;;;;;2.55;0.77;;;15.30;99.90;;;;;;4979793;28;20464;-84
2023/05/10 08:37:54;;;;;;;1.05;0.60;;;15.30;99.90;;;;;;4954528;28;20042;-85
2023/05/10 08:40:20;;;;;;;1.08;0.40;;;15.30;99.90;;;;;;4969043;28;20592;-85
2023/05/10 08:42:58;;;;;;;4.43;0.60;;;15.40;99.90;;;;;;4973954;28;20507;-84
2023/05/10 08:45:26;;;;;;;0.82;0.63;;;15.50;99.90;;;;;;4974576;28;20022;-84
2023/05/10 08:47:52;;;;;;;3.25;0.60;;;15.50;99.90;;;;;;4955243;28;20027;-85
2023/05/10 08:50:21;;;;;;;2.03;0.63;;;15.50;99.90;;;;;;4957710;28;20770;-85
2023/05/10 08:52:53;;;;;;;2.17;0.38;;;15.60;99.90;;;;;;4956308;28;20038;-85
2023/05/10 08:55:18;;;;;;;1.63;0.70;;;15.70;99.90;;;;;;4958431;28;20031;-85
2023/05/10 08:57:44;;;;;;;1.10;0.52;;;15.70;99.90;;;;;;4957072;28;20332;-84
2023/05/10 09:00:11;;;;;;;1.08;0.40;;;15.80;99.90;;;;;;4974475;28;20038;-85
2023/05/10 09:02:37;;;;;;;1.42;0.50;;;15.80;99.90;;;;;;4990894;28;20042;-85
2023/05/10 09:05:04;;;;;;;0.80;0.60;;;15.90;99.90;;;;;;4959257;28;20137;-85
2023/05/10 09:07:30;;;;;;;2.83;0.40;;;15.90;99.90;;;;;;4967379;28;20566;-85
2023/05/10 09:09:57;;;;;;;1.35;0.60;;;15.90;99.90;;;;;;4976838;28;20039;-86
2023/05/10 09:12:23;;;;;;;1.55;0.55;;;15.90;99.90;;;;;;4959569;28;20428;-85
2023/05/10 09:14:50;;;;;;;1.55;0.60;;;15.90;99.90;;;;;;4972140;28;20065;-85
2023/05/10 09:17:16;;;;;;;3.60;0.80;;;15.90;99.90;;;;;;4970167;28;20033;-84
2023/05/10 09:19:42;;;;;;;2.97;0.57;;;15.90;99.90;;;;;;4972205;28;20536;-85
2023/05/10 09:22:09;;;;;;;2.80;0.85;;;15.90;99.90;;;;;;4975893;28;20018;-85
2023/05/10 09:24:36;;;;;;;3.65;0.65;;;15.90;99.90;;;;;;4957592;28;20169;-85
2023/05/10 09:27:02;;;;;;;1.27;0.40;;;16.00;99.90;;;;;;4959874;28;20031;-85
2023/05/10 09:29:42;;;;;;;1.23;0.50;;;16.00;99.90;;;;;;4960489;28;20027;-85
2023/05/10 09:32:07;;;;;;;1.73;0.60;;;16.00;99.90;;;;;;4975181;28;20075;-85
2023/05/10 09:34:35;;;;;;;0.90;0.80;;;16.00;99.90;;;;;;4957990;28;20196;-85
2023/05/10 09:37:04;;;;;;;1.50;0.40;;;16.00;99.90;;;;;;4975929;28;20022;-85
2023/05/10 09:39:34;;;;;;;2.20;0.50;;;16.00;99.90;;;;;;4981039;28;20041;-85
2023/05/10 09:42:03;;;;;;;1.35;0.63;;;16.10;99.90;;;;;;4978242;28;20051;-85
2023/05/10 09:44:32;;;;;;;1.55;0.47;;;16.10;99.90;;;;;;4965633;28;20026;-85
2023/05/10 09:46:58;;;;;;;1.90;0.68;;;16.20;99.90;;;;;;4978103;28;20037;-86
2023/05/10 09:49:24;;;;;;;0.95;0.60;;;16.30;99.90;;;;;;4979988;28;20109;-85
2023/05/10 09:52:22;;;;;;;2.25;0.50;;;16.40;99.90;;;;;;4976423;28;20108;-86
2023/05/10 09:54:54;;;;;;;2.78;0.35;;;16.40;99.90;;;;;;4943065;28;20038;-85
2023/05/10 09:57:21;;;;;;;1.05;0.60;;;16.50;99.90;;;;;;4972584;28;20090;-85
2023/05/10 09:59:48;;;;;;;0.80;0.40;;;16.60;99.90;;;;;;4969803;28;20023;-85
2023/05/10 10:02:14;;;;;;;0.65;0.50;;;16.60;99.90;;;;;;4979806;28;20054;-85
2023/05/10 10:04:41;;;;;;;2.60;0.73;;;16.70;99.90;;;;;;4980668;28;20023;-85
2023/05/10 10:07:07;;;;;;;1.05;0.40;;;16.70;99.90;;;;;;4993963;28;20494;-85
2023/05/10 10:09:34;;;;;;;2.38;0.35;;;16.70;99.90;;;;;;4961155;28;20031;-85
2023/05/10 10:12:04;;;;;;;0.93;0.60;;;16.60;99.90;;;;;;4959821;28;20026;-87
2023/05/10 10:14:30;;;;;;;0.70;0.45;;;16.50;99.90;;;;;;4958404;28;20034;-83
2023/05/10 10:16:56;;;;;;;1.20;0.70;;;16.40;99.90;;;;;;4974042;28;20019;-86
2023/05/10 10:19:22;;;;;;;1.85;0.63;;;16.30;99.90;;;;;;4970483;28;20472;-84
2023/05/10 10:21:50;;;;;;;2.42;0.50;;;16.20;99.90;;;;;;4975903;28;20110;-85
2023/05/10 10:24:16;;;;;;;4.43;0.70;;;16.00;99.90;;;;;;4969970;28;20186;-85
2023/05/10 10:26:43;;;;;;;2.38;0.50;;;16.00;99.90;;;;;;4961787;28;20491;-85
2023/05/10 10:29:14;;;;;;;2.90;0.82;;;15.90;99.90;;;;;;4978391;28;20031;-85
2023/05/10 10:31:53;;;;;;;3.78;0.70;;;15.80;99.90;;;;;;4970763;28;20034;-85
2023/05/10 10:34:29;;;;;;;1.63;0.70;;;15.80;99.90;;;;;;4974010;28;20900;-84
2023/05/10 10:36:56;;;;;;;2.65;1.25;;;15.80;99.90;;;;;;4982931;28;20063;-85
2023/05/10 10:39:25;;;;;;;4.80;1.90;;;15.70;99.90;;;;;;4958396;28;20082;-84
2023/05/10 10:41:55;;;;;;;2.45;1.40;;;15.80;99.90;;;;;;4969368;28;21325;-85
2023/05/10 10:44:40;;;;;;;1.42;1.08;;;15.80;99.90;;;;;;4984735;28;20022;-85
2023/05/10 10:47:12;;;;;;;2.97;1.42;;;15.90;99.90;;;;;;4969277;28;20027;-84
2023/05/10 10:49:41;;;;;;;3.33;1.20;;;15.80;99.90;;;;;;4983118;28;20078;-84
2023/05/10 10:52:33;;;;;;;1.95;1.00;;;15.90;99.90;;;;;;4986934;28;20030;-84
2023/05/10 10:55:22;;;;;;;2.45;1.13;;;15.80;99.90;;;;;;4973325;28;20031;-85
2023/05/10 10:58:00;;;;;;;3.53;0.70;;;15.80;99.90;;;;;;4976376;28;20023;-86
2023/05/10 11:00:40;;;;;;;4.22;1.30;;;15.90;99.90;;;;;;4964420;28;20054;-86
2023/05/10 11:03:13;;;;;;;1.42;0.80;;;15.90;99.90;;;;;;4959504;28;20081;-86
2023/05/10 11:05:43;;;;;;;3.00;1.08;;;16.00;99.90;;;;;;4954577;28;20030;-86
2023/05/10 11:08:14;;;;;;;2.10;0.80;;;16.00;99.90;;;;;;4989258;28;20034;-86
2023/05/10 11:10:49;;;;;;;1.83;0.63;;;16.10;99.90;;;;;;4989202;28;20027;-87
2023/05/10 11:13:15;;;;;;;0.70;0.63;;;16.20;99.90;;;;;;4961326;28;20031;-82
2023/05/10 11:15:48;;;;;;;1.25;0.70;;;16.30;99.90;;;;;;4973385;28;20090;-83
2023/05/10 11:18:18;;;;;;;1.38;0.70;;;16.40;99.90;;;;;;4977612;28;20030;-86
2023/05/10 11:20:49;;;;;;;1.25;0.52;;;16.50;99.90;;;;;;4975039;28;20029;-87
2023/05/10 11:23:15;;;;;;;1.35;0.70;;;16.60;99.90;;;;;;4970533;28;20027;-87
2023/05/10 11:25:49;;;;;;;2.28;0.70;;;16.80;99.90;;;;;;4975329;28;20082;-86
2023/05/10 11:28:18;;;;;;;2.15;0.63;;;16.80;99.90;;;;;;4957094;28;20073;-87
2023/05/10 11:30:45;;;;;;;1.63;0.55;;;16.80;99.90;;;;;;4970324;28;20071;-86
2023/05/10 11:33:15;;;;;;;1.15;0.80;;;16.60;99.90;;;;;;4966813;28;20129;-86
2023/05/10 11:35:41;;;;;;;1.58;0.60;;;16.50;99.90;;;;;;4972250;28;20672;-85
2023/05/10 11:38:11;;;;;;;1.02;0.43;;;16.20;99.90;;;;;;4968973;28;20115;-86
2023/05/10 11:40:37;;;;;;;1.95;0.55;;;16.00;99.90;;;;;;4977344;28;20097;-86
2023/05/10 11:43:04;;;;;;;1.48;0.90;;;15.80;99.90;;;;;;4960126;28;20027;-86
2023/05/10 11:45:33;;;;;;;3.45;1.15;;;15.70;99.90;;;;;;4944226;28;20460;-86
2023/05/10 11:47:59;;;;;;;2.58;0.73;;;15.60;99.90;;;;;;4958603;28;20053;-86
2023/05/10 11:50:25;;;;;;;0.68;0.47;;;15.60;99.90;;;;;;4962849;28;20037;-86
2023/05/10 11:52:53;;;;;;;2.38;0.70;;;15.60;99.90;;;;;;4954083;28;20081;-85
2023/05/10 11:55:19;;;;;;;1.92;0.70;;;15.60;99.90;;;;;;4975536;28;20459;-85
2023/05/10 11:57:45;;;;;;;1.67;0.40;;;15.60;99.90;;;;;;4970660;28;20030;-86
2023/05/10 12:00:12;;;;;;;3.15;0.70;;;15.60;99.90;;;;;;4972911;28;20042;-84
2023/05/10 12:02:38;;;;;;;2.92;0.68;;;15.60;99.90;;;;;;4990497;28;20038;-85
2023/05/10 12:05:06;;;;;;;3.63;0.90;;;15.60;99.90;;;;;;4980375;28;20030;-85
2023/05/10 12:07:32;;;;;;;1.10;0.65;;;15.50;99.90;;;;;;4957647;28;20027;-84
2023/05/10 12:10:14;;;;;;;1.55;0.52;;;15.50;99.90;;;;;;4961082;28;20483;-84
2023/05/10 12:12:47;;;;;;;1.10;0.55;;;15.50;99.90;;;;;;4974194;28;20038;-85
2023/05/10 12:15:19;;;;;;;;;;;15.40;99.90;;;;;;4992499;28;20067;-85
2023/05/10 12:17:46;;;;;;;2.63;0.75;;;15.40;99.90;;;;;;4971857;28;20489;-85
2023/05/10 12:20:23;;;;;;;0.93;0.57;;;15.40;99.90;;;;;;4958433;28;20033;-84
2023/05/10 12:22:51;;;;;;;1.10;0.60;;;15.40;99.90;;;;;;4961322;28;20534;-83
2023/05/10 12:25:20;;;;;;;1.70;0.70;;;15.40;99.90;;;;;;4952599;28;20038;-85
2023/05/10 12:27:51;;;;;;;1.88;0.77;;;15.50;99.90;;;;;;4979338;28;20030;-85
2023/05/10 12:30:24;;;;;;;1.42;0.65;;;15.60;99.90;;;;;;4971186;28;20061;-85
2023/05/10 12:32:50;;;;;;;2.25;0.90;;;15.60;99.90;;;;;;4976032;28;20030;-85
2023/05/10 12:35:17;;;;;;;1.33;0.70;;;15.60;99.90;;;;;;4951856;28;20384;-85
2023/05/10 12:37:43;;;;;;;4.47;1.00;;;15.70;99.90;;;;;;4971852;28;20026;-86
2023/05/10 12:40:11;;;;;;;3.58;0.77;;;15.70;99.90;;;;;;4957066;28;20511;-87
2023/05/10 12:42:38;;;;;;;1.15;0.60;;;15.80;99.90;;;;;;4955768;28;20034;-85
2023/05/10 12:45:05;;;;;;;1.70;0.77;;;15.90;99.90;;;;;;4972252;28;20049;-85
2023/05/10 12:47:32;;;;;;;2.70;0.70;;;15.90;99.90;;;;;;4953530;28;20035;-86
2023/05/10 12:49:57;;;;;;;2.75;0.60;;;15.90;99.90;;;;;;4960153;28;20077;-86
2023/05/10 12:52:24;;;;;;;2.70;0.68;;;16.00;99.90;;;;;;4964169;28;20035;-86
2023/05/10 12:54:50;;;;;;;2.30;0.60;;;15.90;99.90;;;;;;4967089;28;20034;-86
2023/05/10 12:57:16;;;;;;;3.72;1.05;;;16.10;99.90;;;;;;4965866;28;20035;-87